createdAt,value
2023-04-29T00:02:20.812Z,58.12
2023-04-29T00:04:47.683Z,58.00
2023-04-29T00:07:15.513Z,58.15
2023-04-29T00:09:42.096Z,58.13
2023-04-29T00:12:10.124Z,58.33
2023-04-29T00:14:36.754Z,57.85
2023-04-29T00:17:03.468Z,58.01
2023-04-29T00:19:30.685Z,58.16
2023-04-29T00:21:58.943Z,59.63
2023-04-29T00:24:25.844Z,59.11
2023-04-29T00:27:11.259Z,58.92
2023-04-29T00:29:37.906Z,58.91
2023-04-29T00:32:04.743Z,59.06
2023-04-29T00:34:31.492Z,58.89
2023-04-29T00:36:57.960Z,58.72
2023-04-29T00:39:24.581Z,58.81
2023-04-29T00:41:52.262Z,59.16
2023-04-29T00:44:18.859Z,59.42
2023-04-29T00:46:45.366Z,59.19
2023-04-29T00:49:12.993Z,59.38
2023-04-29T00:51:42.288Z,59.56
2023-04-29T00:54:10.789Z,59.66
2023-04-29T00:56:40.820Z,59.65
2023-04-29T00:59:09.486Z,59.66
2023-04-29T01:01:37.377Z,59.89
2023-04-29T01:04:05.460Z,60.21
2023-04-29T01:06:59.680Z,60.27
2023-04-29T01:09:49.627Z,61.68
2023-04-29T01:20:26.783Z,63.84
2023-04-29T01:22:53.622Z,66.38
2023-04-29T01:25:20.506Z,64.12
2023-04-29T01:28:26.352Z,63.24
2023-04-29T01:31:04.234Z,62.49
2023-04-29T01:33:46.691Z,62.23
2023-04-29T01:36:51.776Z,62.00
2023-04-29T01:39:30.803Z,62.61
2023-04-29T01:42:29.045Z,62.49
2023-04-29T01:45:00.121Z,62.09
2023-04-29T01:47:28.616Z,61.82
2023-04-29T01:49:55.322Z,61.68
2023-04-29T01:52:22.927Z,61.59
2023-04-29T01:54:54.899Z,61.83
2023-04-29T01:57:21.828Z,61.63
2023-04-29T01:59:56.883Z,61.40
2023-04-29T02:02:40.294Z,61.29
2023-04-29T02:05:16.581Z,61.53
2023-04-29T02:07:48.068Z,61.53
2023-04-29T02:10:14.669Z,61.57
2023-04-29T02:12:42.117Z,62.13
2023-04-29T02:15:09.093Z,61.79
2023-04-29T02:17:35.794Z,61.80
2023-04-29T02:20:02.556Z,62.56
2023-04-29T02:22:29.077Z,64.26
2023-04-29T02:24:55.766Z,62.65
2023-04-29T02:27:22.367Z,62.47
2023-04-29T02:29:50.822Z,62.25
2023-04-29T02:32:19.517Z,63.70
2023-04-29T02:34:46.273Z,64.63
2023-04-29T02:37:13.138Z,63.45
2023-04-29T02:39:40.594Z,63.29
2023-04-29T02:42:07.213Z,63.08
2023-04-29T02:44:36.225Z,62.92
2023-04-29T02:47:02.728Z,62.80
2023-04-29T02:49:29.577Z,62.80
2023-04-29T02:51:56.114Z,62.90
2023-04-29T02:54:22.918Z,62.84
2023-04-29T02:56:49.856Z,62.92
2023-04-29T02:59:16.467Z,63.04
2023-04-29T03:01:43.016Z,62.93
2023-04-29T03:04:10.077Z,65.29
2023-04-29T03:06:36.793Z,64.82
2023-04-29T03:09:03.503Z,66.72
2023-04-29T03:11:30.664Z,67.67
2023-04-29T03:13:57.301Z,68.23
2023-04-29T03:16:24.697Z,66.10
2023-04-29T03:18:51.316Z,65.35
2023-04-29T03:21:17.961Z,65.28
2023-04-29T03:23:46.277Z,65.05
2023-04-29T03:26:17.695Z,65.63
2023-04-29T03:28:44.194Z,67.13
2023-04-29T03:31:11.565Z,66.32
2023-04-29T03:33:40.842Z,66.37
2023-04-29T03:36:07.903Z,70.16
2023-04-29T03:38:38.412Z,70.27
2023-04-29T03:41:05.200Z,71.24
2023-04-29T03:43:31.903Z,72.11
2023-04-29T03:45:58.618Z,71.70
2023-04-29T03:48:25.533Z,72.73
2023-04-29T03:50:52.457Z,72.30
2023-04-29T03:53:20.109Z,72.97
2023-04-29T03:55:47.852Z,73.38
2023-04-29T03:58:15.832Z,73.72
2023-04-29T04:00:42.716Z,73.11
2023-04-29T04:03:11.469Z,72.16
2023-04-29T04:05:38.134Z,71.59
2023-04-29T04:08:08.265Z,70.92
2023-04-29T04:10:48.581Z,70.28
2023-04-29T04:13:24.858Z,70.74
2023-04-29T04:15:52.281Z,71.13
2023-04-29T04:18:19.578Z,70.47
2023-04-29T04:20:47.126Z,71.07
2023-04-29T04:23:14.043Z,70.55
2023-04-29T04:25:48.605Z,70.09
2023-04-29T04:28:30.025Z,69.73
2023-04-29T04:31:00.439Z,69.55
2023-04-29T04:33:27.561Z,70.40
2023-04-29T04:35:54.185Z,71.83
2023-04-29T04:38:22.476Z,71.17
2023-04-29T04:40:49.102Z,71.56
2023-04-29T04:43:30.392Z,71.51
2023-04-29T04:45:59.807Z,70.77
2023-04-29T04:48:26.324Z,71.33
2023-04-29T04:50:52.998Z,70.40
2023-04-29T04:53:19.912Z,71.54
2023-04-29T04:55:51.471Z,70.76
2023-04-29T04:58:18.196Z,70.48
2023-04-29T05:00:45.249Z,70.13
2023-04-29T05:03:11.997Z,69.61
2023-04-29T05:05:38.599Z,69.32
2023-04-29T05:08:05.196Z,69.70
2023-04-29T05:10:36.953Z,69.52
2023-04-29T05:13:04.292Z,69.64
2023-04-29T05:15:31.679Z,69.15
2023-04-29T05:17:59.585Z,69.33
2023-04-29T05:20:26.657Z,70.28
2023-04-29T05:22:54.137Z,69.88
2023-04-29T05:25:20.908Z,69.52
2023-04-29T05:27:47.460Z,69.38
2023-04-29T05:30:17.712Z,69.13
2023-04-29T05:32:45.311Z,68.42
2023-04-29T05:35:14.828Z,67.47
2023-04-29T05:37:41.360Z,66.89
2023-04-29T05:40:18.480Z,65.20
2023-04-29T05:42:46.329Z,65.60
2023-04-29T05:45:13.234Z,64.08
2023-04-29T05:47:40.047Z,63.29
2023-04-29T05:50:07.674Z,61.89
2023-04-29T05:52:34.091Z,61.12
2023-04-29T05:55:00.617Z,60.97
2023-04-29T05:57:27.523Z,61.20
2023-04-29T05:59:55.662Z,61.64
2023-04-29T06:02:25.035Z,61.12
2023-04-29T06:04:51.894Z,61.01
2023-04-29T06:07:35.606Z,60.35
2023-04-29T06:10:16.325Z,60.26
2023-04-29T06:12:45.957Z,60.05
2023-04-29T06:15:12.538Z,60.54
2023-04-29T06:17:39.594Z,60.24
2023-04-29T06:20:08.371Z,59.98
2023-04-29T06:22:34.900Z,60.09
2023-04-29T06:25:04.351Z,59.86
2023-04-29T06:27:42.478Z,58.90
2023-04-29T06:30:09.300Z,58.84
2023-04-29T06:32:36.992Z,59.09
2023-04-29T06:35:04.228Z,58.53
2023-04-29T06:37:41.574Z,58.12
2023-04-29T06:40:28.024Z,57.51
2023-04-29T06:43:08.099Z,57.08
2023-04-29T06:45:39.337Z,57.10
2023-04-29T06:48:16.115Z,56.84
2023-04-29T06:50:51.504Z,56.78
2023-04-29T06:53:18.463Z,56.25
2023-04-29T06:55:45.718Z,55.55
2023-04-29T06:58:15.806Z,55.34
2023-04-29T07:00:47.528Z,54.43
2023-04-29T07:03:15.975Z,54.36
2023-04-29T07:05:44.778Z,53.93
2023-04-29T07:08:12.552Z,54.29
2023-04-29T07:10:40.992Z,53.77
2023-04-29T07:13:07.555Z,53.40
2023-04-29T07:15:34.901Z,53.39
2023-04-29T07:18:04.458Z,52.74
2023-04-29T07:20:30.998Z,52.65
2023-04-29T07:22:58.097Z,52.13
2023-04-29T07:25:28.504Z,52.57
2023-04-29T07:27:56.093Z,52.37
2023-04-29T07:30:24.658Z,51.98
2023-04-29T07:32:51.458Z,51.93
2023-04-29T07:35:18.487Z,51.94
2023-04-29T07:37:45.562Z,51.56
2023-04-29T07:40:12.902Z,51.60
2023-04-29T07:42:39.599Z,50.57
2023-04-29T07:45:07.056Z,49.59
2023-04-29T07:47:33.703Z,49.14
2023-04-29T07:50:01.044Z,48.18
2023-04-29T07:52:27.608Z,48.61
2023-04-29T07:54:55.751Z,49.43
2023-04-29T07:57:22.336Z,48.86
2023-04-29T07:59:53.402Z,47.61
2023-04-29T08:02:37.460Z,46.65
2023-04-29T08:05:05.727Z,46.82
2023-04-29T08:07:33.145Z,45.87
2023-04-29T08:10:00.025Z,46.48
2023-04-29T08:12:26.444Z,45.58
2023-04-29T08:14:53.252Z,45.43
2023-04-29T08:17:21.421Z,44.14
2023-04-29T08:19:47.907Z,44.22
2023-04-29T08:22:15.123Z,43.73
2023-04-29T08:24:42.163Z,42.88
2023-04-29T08:27:08.723Z,41.91
2023-04-29T08:29:35.379Z,40.15
2023-04-29T08:32:02.523Z,39.61
2023-04-29T08:34:30.381Z,38.90
2023-04-29T08:36:57.041Z,37.95
2023-04-29T08:39:23.546Z,37.27
2023-04-29T08:41:51.327Z,37.55
2023-04-29T08:44:17.951Z,38.28
2023-04-29T08:46:45.952Z,38.15
2023-04-29T08:49:13.189Z,37.78
2023-04-29T08:51:39.760Z,37.51
2023-04-29T08:54:08.264Z,38.01
2023-04-29T08:56:36.452Z,36.75
2023-04-29T08:59:04.604Z,36.32
2023-04-29T09:01:32.157Z,35.99
2023-04-29T09:04:19.555Z,36.16
2023-04-29T09:06:47.770Z,36.17
2023-04-29T09:09:15.357Z,35.36
2023-04-29T09:11:41.837Z,34.57
2023-04-29T09:14:08.783Z,34.56
2023-04-29T09:16:37.553Z,33.92
2023-04-29T09:19:05.419Z,33.17
2023-04-29T09:21:33.181Z,32.81
2023-04-29T09:24:01.622Z,33.18
2023-04-29T09:26:40.972Z,32.79
2023-04-29T09:29:10.863Z,30.81
2023-04-29T09:31:38.841Z,31.59
2023-04-29T09:34:06.240Z,31.16
2023-04-29T09:36:45.041Z,31.04
2023-04-29T09:39:15.904Z,29.66
2023-04-29T09:41:58.542Z,28.65
2023-04-29T09:44:29.194Z,27.95
2023-04-29T09:47:04.705Z,28.05
2023-04-29T09:49:40.080Z,27.82
2023-04-29T09:52:09.946Z,28.62
2023-04-29T09:54:38.316Z,29.34
2023-04-29T09:57:09.064Z,28.27
2023-04-29T09:59:37.797Z,27.00
2023-04-29T10:02:16.967Z,26.69
2023-04-29T10:04:46.356Z,26.34
2023-04-29T10:07:17.657Z,27.05
2023-04-29T10:09:46.707Z,24.99
2023-04-29T10:12:18.381Z,25.57
2023-04-29T10:14:57.332Z,25.63
2023-04-29T10:17:34.938Z,24.94
2023-04-29T10:20:05.149Z,26.00
2023-04-29T10:22:48.390Z,25.82
2023-04-29T10:25:16.652Z,24.72
2023-04-29T10:27:43.975Z,24.76
2023-04-29T10:30:13.781Z,25.49
2023-04-29T10:32:50.547Z,24.08
2023-04-29T10:35:22.031Z,24.31
2023-04-29T10:37:49.189Z,23.40
2023-04-29T10:40:27.643Z,24.07
2023-04-29T10:42:54.913Z,24.54
2023-04-29T10:45:24.053Z,24.40
2023-04-29T10:48:08.730Z,24.68
2023-04-29T10:50:59.707Z,25.16
2023-04-29T10:53:27.429Z,25.45
2023-04-29T10:55:57.837Z,25.33
2023-04-29T10:58:43.372Z,26.14
2023-04-29T11:01:13.040Z,25.97
2023-04-29T11:03:57.931Z,26.47
2023-04-29T11:06:40.832Z,26.85
2023-04-29T11:09:19.965Z,27.16
2023-04-29T11:11:57.664Z,27.49
2023-04-29T11:14:28.693Z,27.28
2023-04-29T11:16:59.867Z,27.44
2023-04-29T11:19:34.264Z,27.64
2023-04-29T11:22:26.176Z,27.83
2023-04-29T11:24:56.453Z,27.48
2023-04-29T11:27:26.657Z,27.50
2023-04-29T11:29:57.510Z,27.18
2023-04-29T11:32:29.363Z,27.43
2023-04-29T11:35:09.933Z,27.56
2023-04-29T11:37:36.812Z,28.24
2023-04-29T11:40:05.627Z,28.32
2023-04-29T11:42:44.827Z,28.26
2023-04-29T11:45:11.713Z,28.43
2023-04-29T11:47:45.096Z,27.86
2023-04-29T11:50:12.861Z,28.33
2023-04-29T11:52:40.079Z,28.57
2023-04-29T11:55:11.072Z,28.57
2023-04-29T11:57:39.932Z,28.74
2023-04-29T12:00:12.067Z,28.93
2023-04-29T12:02:39.428Z,28.42
2023-04-29T12:05:08.457Z,28.58
2023-04-29T12:07:36.356Z,28.64
2023-04-29T12:10:03.070Z,28.83
2023-04-29T12:12:34.150Z,28.72
2023-04-29T12:15:02.681Z,28.67
2023-04-29T12:17:29.695Z,28.80
2023-04-29T12:19:57.058Z,28.83
2023-04-29T12:22:31.622Z,29.03
2023-04-29T12:24:58.676Z,29.19
2023-04-29T12:27:26.400Z,29.24
2023-04-29T12:29:53.137Z,29.12
2023-04-29T12:32:26.770Z,28.80
2023-04-29T12:34:53.611Z,28.36
2023-04-29T12:37:22.709Z,28.30
2023-04-29T12:39:50.096Z,27.70
2023-04-29T12:42:17.059Z,28.03
2023-04-29T12:44:46.979Z,28.02
2023-04-29T12:47:15.349Z,28.10
2023-04-29T12:49:43.687Z,28.57
2023-04-29T12:52:10.422Z,28.60
2023-04-29T12:54:41.059Z,28.96
2023-04-29T12:57:08.535Z,28.74
2023-04-29T12:59:35.367Z,28.76
2023-04-29T13:02:02.068Z,28.17
2023-04-29T13:04:28.901Z,27.65
2023-04-29T13:06:59.966Z,27.06
2023-04-29T13:09:26.706Z,27.04
2023-04-29T13:11:53.343Z,27.56
2023-04-29T13:14:22.536Z,27.59
2023-04-29T13:16:53.950Z,27.32
2023-04-29T13:19:36.411Z,26.38
2023-04-29T13:22:06.106Z,26.31
2023-04-29T13:24:34.571Z,26.96
2023-04-29T13:27:02.277Z,26.94
2023-04-29T13:29:28.829Z,26.55
2023-04-29T13:31:55.848Z,25.72
2023-04-29T13:34:22.255Z,25.74
2023-04-29T13:36:48.757Z,25.29
2023-04-29T13:39:15.373Z,25.07
2023-04-29T13:41:45.530Z,25.08
2023-04-29T13:44:27.231Z,25.00
2023-04-29T13:47:00.053Z,25.24
2023-04-29T13:49:54.717Z,25.87
2023-04-29T13:53:01.739Z,26.36
2023-04-29T13:55:49.474Z,26.41
2023-04-29T14:05:25.343Z,26.92
2023-04-29T14:07:52.236Z,27.27
2023-04-29T14:10:18.853Z,27.05
2023-04-29T14:12:45.327Z,26.99
2023-04-29T14:15:11.790Z,26.19
2023-04-29T14:17:38.418Z,26.44
2023-04-29T14:20:05.972Z,25.99
2023-04-29T14:22:32.403Z,26.09
2023-04-29T14:24:58.763Z,26.22
2023-04-29T14:27:53.193Z,26.13
2023-04-29T14:31:29.371Z,26.27
2023-04-29T14:38:31.256Z,27.09
2023-04-29T14:42:04.158Z,27.10
2023-04-29T14:45:34.539Z,27.72
2023-04-29T14:49:00.223Z,28.87
2023-04-29T14:51:38.403Z,29.57
2023-04-29T14:54:04.893Z,30.15
2023-04-29T14:56:31.711Z,30.97
2023-04-29T14:58:58.136Z,32.10
2023-04-29T15:01:25.299Z,32.50
2023-04-29T15:03:51.816Z,32.70
2023-04-29T15:06:18.336Z,33.43
2023-04-29T15:08:45.029Z,34.03
2023-04-29T15:11:11.620Z,33.91
2023-04-29T15:13:38.460Z,34.20
2023-04-29T15:16:07.440Z,34.93
2023-04-29T15:18:34.010Z,34.96
2023-04-29T15:21:00.511Z,35.01
2023-04-29T15:23:27.189Z,35.41
2023-04-29T15:25:55.988Z,35.48
2023-04-29T15:28:25.126Z,36.26
2023-04-29T15:30:55.125Z,36.53
2023-04-29T15:33:22.789Z,37.13
2023-04-29T15:35:56.182Z,37.14
2023-04-29T15:38:23.659Z,37.10
2023-04-29T15:40:50.112Z,36.64
2023-04-29T15:43:16.558Z,36.43
2023-04-29T15:45:43.582Z,36.20
2023-04-29T15:48:10.313Z,36.25
2023-04-29T15:50:36.862Z,36.33
2023-04-29T15:53:03.316Z,36.71
2023-04-29T15:55:29.843Z,36.68
2023-04-29T15:57:56.355Z,35.77
2023-04-29T16:00:22.780Z,34.48
2023-04-29T16:02:49.311Z,33.99
2023-04-29T16:05:15.924Z,33.83
2023-04-29T16:07:42.622Z,32.33
2023-04-29T16:10:09.686Z,30.68
2023-04-29T16:12:37.173Z,29.24
2023-04-29T16:15:05.949Z,28.08
2023-04-29T16:17:32.573Z,27.67
2023-04-29T16:19:59.147Z,26.89
2023-04-29T16:22:27.257Z,25.89
2023-04-29T16:24:53.804Z,25.40
2023-04-29T16:27:20.596Z,24.81
2023-04-29T16:29:47.138Z,25.11
2023-04-29T16:32:13.583Z,24.80
2023-04-29T16:34:41.144Z,24.50
2023-04-29T16:37:11.878Z,24.63
2023-04-29T16:39:39.210Z,24.96
2023-04-29T16:42:06.328Z,25.10
2023-04-29T16:44:33.176Z,25.13
2023-04-29T16:46:59.753Z,25.79
2023-04-29T16:49:26.392Z,26.40
2023-04-29T16:51:53.902Z,26.54
2023-04-29T16:54:22.733Z,26.95
2023-04-29T16:56:51.007Z,27.06
2023-04-29T16:59:18.159Z,27.19
2023-04-29T17:01:44.842Z,27.03
2023-04-29T17:04:11.539Z,27.01
2023-04-29T17:06:39.888Z,27.26
2023-04-29T17:09:09.279Z,27.24
2023-04-29T17:11:35.953Z,27.63
2023-04-29T17:14:02.826Z,27.75
2023-04-29T17:16:30.297Z,28.02
2023-04-29T17:18:57.229Z,28.06
2023-04-29T17:21:25.074Z,28.31
2023-04-29T17:23:52.630Z,28.75
2023-04-29T17:26:20.495Z,29.32
2023-04-29T17:28:47.233Z,29.86
2023-04-29T17:31:14.500Z,30.18
2023-04-29T17:33:49.693Z,30.75
2023-04-29T17:36:16.672Z,31.41
2023-04-29T17:38:43.126Z,32.06
2023-04-29T17:41:09.911Z,33.81
2023-04-29T17:43:36.382Z,34.02
2023-04-29T17:46:03.075Z,34.66
2023-04-29T17:48:31.368Z,35.66
2023-04-29T17:50:57.766Z,35.78
2023-04-29T17:53:24.253Z,36.61
2023-04-29T17:55:50.913Z,36.34
2023-04-29T17:58:17.920Z,36.76
2023-04-29T18:00:45.635Z,37.33
2023-04-29T18:03:12.591Z,37.18
2023-04-29T18:05:39.133Z,37.64
2023-04-29T18:08:05.646Z,38.11
2023-04-29T18:10:32.300Z,38.36
2023-04-29T18:12:59.043Z,38.63
2023-04-29T18:15:25.682Z,38.93
2023-04-29T18:17:55.507Z,39.21
2023-04-29T18:20:22.238Z,39.55
2023-04-29T18:22:49.686Z,39.87
2023-04-29T18:25:16.689Z,39.89
2023-04-29T18:27:43.723Z,40.39
2023-04-29T18:30:10.523Z,40.80
2023-04-29T18:32:37.796Z,41.17
2023-04-29T18:35:05.293Z,40.92
2023-04-29T18:37:34.442Z,41.05
2023-04-29T18:40:00.988Z,41.32
2023-04-29T18:42:27.834Z,41.42
2023-04-29T18:44:54.873Z,41.48
2023-04-29T18:47:21.412Z,41.70
2023-04-29T18:49:48.151Z,42.33
2023-04-29T18:52:14.578Z,42.25
2023-04-29T18:54:41.199Z,42.65
2023-04-29T18:57:08.464Z,42.99
2023-04-29T18:59:37.024Z,43.32
2023-04-29T19:02:05.604Z,43.40
2023-04-29T19:04:32.568Z,44.04
2023-04-29T19:06:59.612Z,44.45
2023-04-29T19:09:27.381Z,45.04
2023-04-29T19:11:54.081Z,45.17
2023-04-29T19:14:20.663Z,45.31
2023-04-29T19:16:47.292Z,45.40
2023-04-29T19:19:13.729Z,45.97
2023-04-29T19:21:40.262Z,46.18
2023-04-29T19:24:06.691Z,46.75
2023-04-29T19:26:35.473Z,46.81
2023-04-29T19:29:03.152Z,46.85
2023-04-29T19:31:29.974Z,46.90
2023-04-29T19:33:56.523Z,47.23
2023-04-29T19:36:22.989Z,47.66
2023-04-29T19:38:49.686Z,47.62
2023-04-29T19:41:16.949Z,47.56
2023-04-29T19:43:43.444Z,47.49
2023-04-29T19:46:12.484Z,47.73
2023-04-29T19:48:39.027Z,47.90
2023-04-29T19:51:06.492Z,48.15
2023-04-29T19:53:33.242Z,48.16
2023-04-29T19:55:59.876Z,48.17
2023-04-29T19:58:26.506Z,48.23
2023-04-29T20:00:53.357Z,48.62
2023-04-29T20:03:20.683Z,48.54
2023-04-29T20:05:47.223Z,49.43
2023-04-29T20:08:13.769Z,49.33
2023-04-29T20:10:40.965Z,49.58
2023-04-29T20:13:07.693Z,49.66
2023-04-29T20:15:34.514Z,49.86
2023-04-29T20:18:01.482Z,50.95
2023-04-29T20:20:28.092Z,50.89
2023-04-29T20:22:57.355Z,51.30
2023-04-29T20:25:24.906Z,51.57
2023-04-29T20:27:52.837Z,52.04
2023-04-29T20:30:19.798Z,52.25
2023-04-29T20:32:46.374Z,52.29
2023-04-29T20:35:12.891Z,52.19
2023-04-29T20:37:39.731Z,52.00
2023-04-29T20:40:07.346Z,52.62
2023-04-29T20:42:33.837Z,52.87
2023-04-29T20:45:00.346Z,53.39
2023-04-29T20:47:27.640Z,53.26
2023-04-29T20:49:54.562Z,53.43
2023-04-29T20:52:21.381Z,53.30
2023-04-29T20:54:47.915Z,53.29
2023-04-29T20:57:14.331Z,54.15
2023-04-29T20:59:40.894Z,53.89
2023-04-29T21:02:07.506Z,54.15
2023-04-29T21:04:34.181Z,54.12
2023-04-29T21:07:03.404Z,54.32
2023-04-29T21:09:30.005Z,54.20
2023-04-29T21:11:58.665Z,54.57
2023-04-29T21:14:26.326Z,54.69
2023-04-29T21:16:53.699Z,54.87
2023-04-29T21:19:20.328Z,54.94
2023-04-29T21:21:46.784Z,55.36
2023-04-29T21:24:13.416Z,55.22
2023-04-29T21:26:40.214Z,55.51
2023-04-29T21:29:06.791Z,56.09
2023-04-29T21:31:33.370Z,56.24
2023-04-29T21:34:00.137Z,56.30
2023-04-29T21:36:27.408Z,56.12
2023-04-29T21:38:54.212Z,56.05
2023-04-29T21:41:26.562Z,56.56
2023-04-29T21:43:58.699Z,57.70
2023-04-29T21:46:27.831Z,57.23
2023-04-29T21:48:56.987Z,57.33
2023-04-29T21:51:23.487Z,57.60
2023-04-29T21:53:50.544Z,57.50
2023-04-29T21:56:17.110Z,57.94
2023-04-29T21:58:44.192Z,58.70
2023-04-29T22:01:31.238Z,59.08
2023-04-29T22:03:57.804Z,58.93
2023-04-29T22:06:24.433Z,58.91
2023-04-29T22:08:50.912Z,59.06
2023-04-29T22:11:21.082Z,58.83
2023-04-29T22:13:48.094Z,59.43
2023-04-29T22:16:14.893Z,59.33
2023-04-29T22:18:41.848Z,59.85
2023-04-29T22:21:08.382Z,59.09
2023-04-29T22:24:04.208Z,59.56
2023-04-29T22:27:38.137Z,59.52
2023-04-29T22:31:10.273Z,60.34
2023-04-29T22:34:55.222Z,60.40
2023-04-29T22:38:51.987Z,60.14
2023-04-29T22:42:27.181Z,60.36
2023-04-29T22:45:59.273Z,60.96
2023-04-29T22:49:36.216Z,61.21
2023-04-29T22:53:02.177Z,61.17
2023-04-29T22:56:33.214Z,61.52
2023-04-29T23:00:08.213Z,61.32
2023-04-29T23:03:40.155Z,61.63
2023-04-29T23:07:19.512Z,61.41
2023-04-29T23:11:16.200Z,61.79
2023-04-29T23:14:50.255Z,61.81
2023-04-29T23:18:28.197Z,61.47
2023-04-29T23:22:04.621Z,61.32
2023-04-29T23:25:54.202Z,61.42
2023-04-29T23:29:46.212Z,61.19
2023-04-29T23:33:19.210Z,61.56
2023-04-29T23:36:53.216Z,62.12
2023-04-29T23:40:27.182Z,61.76
2023-04-29T23:44:01.264Z,62.31
2023-04-29T23:47:37.454Z,62.96
2023-04-29T23:51:06.350Z,62.90
2023-04-29T23:54:39.181Z,62.86
2023-04-29T23:58:10.252Z,63.31
